Time;durP1;ratioP1;P1;durP2;ratioP2;P2;SDS_P1;SDS_P2;PMS_P1;PMS_P2;Temp;Humidity;BMP_temperature;BMP_pressure;BME280_temperature;BME280_humidity;BME280_pressure;Samples;Min_cycle;Max_cycle;Signal;HPM_P1;HPM_P2
2022/02/23 00:02:21;;;;;;;29.00;10.13;;;;;;;11.16;55.29;99745.78;5071595;28;20024;-53
2022/02/23 00:04:47;;;;;;;26.40;9.35;;;;;;;11.22;55.22;99744.25;5053653;28;20034;-53
2022/02/23 00:07:13;;;;;;;24.83;7.93;;;;;;;11.28;55.46;99745.38;5071647;28;20119;-53
2022/02/23 00:09:38;;;;;;;25.13;7.80;;;;;;;11.25;54.91;99732.56;5071731;28;20070;-53
2022/02/23 00:12:04;;;;;;;25.55;8.15;;;;;;;11.16;55.20;99730.03;5053494;28;20489;-52
2022/02/23 00:14:30;;;;;;;37.00;8.65;;;;;;;11.05;55.34;99733.09;5071566;28;20054;-53
2022/02/23 00:16:56;;;;;;;28.23;8.70;;;;;;;10.95;55.34;99729.91;5071540;28;20111;-53
2022/02/23 00:19:21;;;;;;;29.35;9.80;;;;;;;10.94;55.55;99728.25;5071558;28;20028;-52
2022/02/23 00:21:47;;;;;;;29.33;10.20;;;;;;;11.02;55.64;99725.56;5071487;28;20032;-52
2022/02/23 00:24:14;;;;;;;30.85;9.02;;;;;;;10.99;55.41;99721.47;5071486;28;20025;-53
2022/02/23 00:26:40;;;;;;;29.17;8.88;;;;;;;10.88;55.83;99719.25;5071474;28;20024;-53
2022/02/23 00:29:06;;;;;;;25.65;9.10;;;;;;;10.74;56.32;99720.03;5071466;28;20028;-53
2022/02/23 00:31:32;;;;;;;34.95;9.68;;;;;;;10.69;56.80;99725.81;5071115;28;20053;-53
2022/02/23 00:33:57;;;;;;;28.13;9.57;;;;;;;10.88;56.79;99726.31;5071268;28;20486;-52
2022/02/23 00:36:23;;;;;;;28.23;8.95;;;;;;;11.08;56.27;99727.47;5053639;28;20036;-53
2022/02/23 00:38:49;;;;;;;31.55;10.30;;;;;;;11.21;55.93;99721.63;5071394;28;20021;-53
2022/02/23 00:41:15;;;;;;;30.42;8.82;;;;;;;11.26;55.37;99729.78;5071342;28;20104;-53
2022/02/23 00:43:40;;;;;;;28.85;11.13;;;;;;;11.33;55.46;99727.25;5073890;28;20034;-52
2022/02/23 00:46:06;;;;;;;28.75;9.88;;;;;;;11.32;55.34;99734.31;5075153;28;20082;-53
2022/02/23 00:48:31;;;;;;;34.03;9.35;;;;;;;11.36;55.17;99725.06;5075093;28;20021;-53
2022/02/23 00:50:57;;;;;;;27.67;8.90;;;;;;;11.43;54.96;99733.06;5075051;28;20061;-53
2022/02/23 00:53:23;;;;;;;28.05;8.60;;;;;;;11.49;54.86;99729.72;5057129;28;20075;-53
2022/02/23 00:55:48;;;;;;;27.88;8.98;;;;;;;11.59;55.17;99724.19;5056929;28;20058;-53
2022/02/23 00:58:14;;;;;;;25.17;8.32;;;;;;;11.67;54.60;99713.59;5075004;28;20436;-53
2022/02/23 01:00:40;;;;;;;27.15;10.15;;;;;;;11.72;54.73;99723.56;5074874;28;20024;-53
2022/02/23 01:03:05;;;;;;;27.23;7.93;;;;;;;11.76;54.57;99717.75;5074786;28;20538;-53
2022/02/23 01:05:31;;;;;;;22.27;8.25;;;;;;;11.82;54.54;99716.19;5056801;28;20536;-52
2022/02/23 01:07:57;;;;;;;21.17;7.85;;;;;;;11.86;54.07;99714.84;5056806;28;20028;-52
2022/02/23 01:10:22;;;;;;;24.63;8.85;;;;;;;11.91;54.00;99715.16;5056558;28;20497;-53
2022/02/23 01:12:48;;;;;;;26.23;8.23;;;;;;;11.93;53.90;99718.41;5074721;28;20123;-53
2022/02/23 01:15:15;;;;;;;24.88;8.05;;;;;;;11.93;53.98;99721.03;5056735;28;20587;-53
2022/02/23 01:17:40;;;;;;;27.70;8.02;;;;;;;11.90;53.97;99725.84;5056643;28;20034;-53
2022/02/23 01:20:07;;;;;;;26.25;8.10;;;;;;;11.87;54.06;99727.00;5074551;28;20024;-53
2022/02/23 01:22:33;;;;;;;28.58;9.00;;;;;;;11.85;54.02;99718.47;5074454;28;20378;-53
2022/02/23 01:24:58;;;;;;;24.02;8.10;;;;;;;11.89;54.08;99716.31;5074383;28;20027;-53
2022/02/23 01:27:24;;;;;;;28.00;10.10;;;;;;;12.00;54.29;99723.75;5074409;28;20086;-53
2022/02/23 01:29:50;;;;;;;23.40;9.57;;;;;;;11.96;54.29;99720.66;5074437;28;20025;-53
2022/02/23 01:32:15;;;;;;;34.53;9.55;;;;;;;12.02;54.21;99713.03;5074088;28;20067;-53
2022/02/23 01:34:41;;;;;;;27.63;10.52;;;;;;;12.06;54.01;99722.19;5074344;28;20025;-52
2022/02/23 01:37:07;;;;;;;28.90;9.63;;;;;;;12.02;54.09;99715.69;5074560;28;20494;-53
2022/02/23 01:39:33;;;;;;;32.20;9.68;;;;;;;11.96;54.28;99715.41;5074236;28;20020;-53
2022/02/23 01:41:58;;;;;;;31.92;9.90;;;;;;;11.94;54.28;99706.88;5074224;28;20020;-52
2022/02/23 01:44:24;;;;;;;23.77;10.07;;;;;;;11.90;54.58;99712.69;5074110;28;20077;-52
2022/02/23 01:46:50;;;;;;;29.55;9.40;;;;;;;11.73;54.58;99710.22;5074084;28;20717;-52
2022/02/23 01:49:16;;;;;;;29.42;9.52;;;;;;;11.67;55.07;99708.34;5073931;28;20461;-53
2022/02/23 01:51:41;;;;;;;27.55;10.10;;;;;;;11.56;54.87;99708.78;5055963;28;20421;-53
2022/02/23 01:54:07;;;;;;;24.77;10.45;;;;;;;11.37;55.02;99710.94;5072644;28;20567;-52
2022/02/23 01:56:33;;;;;;;28.00;10.65;;;;;;;11.16;55.74;99713.44;5073896;28;20059;-53
2022/02/23 01:58:58;;;;;;;27.85;10.15;;;;;;;11.08;56.25;99718.78;5055858;28;20029;-52
2022/02/23 02:01:24;;;;;;;34.08;10.77;;;;;;;11.00;56.74;99712.59;5073798;28;20025;-53
2022/02/23 02:03:50;;;;;;;25.40;8.98;;;;;;;10.92;56.43;99707.41;5073728;28;20018;-52
2022/02/23 02:06:15;;;;;;;27.88;9.88;;;;;;;10.90;56.71;99700.72;5073706;28;20477;-52
2022/02/23 02:08:41;;;;;;;34.90;12.35;;;;;;;10.79;56.57;99696.69;5073681;28;20107;-52
2022/02/23 02:11:07;;;;;;;26.02;8.23;;;;;;;10.64;56.60;99694.00;5073606;28;20028;-53
2022/02/23 02:13:32;;;;;;;23.23;9.23;;;;;;;10.49;57.03;99691.34;5073602;28;20024;-52
2022/02/23 02:15:58;;;;;;;26.85;9.35;;;;;;;10.46;57.36;99706.59;5055483;28;20025;-52
2022/02/23 02:18:24;;;;;;;34.70;10.00;;;;;;;10.48;57.48;99699.38;5073468;28;20497;-52
2022/02/23 02:20:49;;;;;;;22.75;9.38;;;;;;;10.53;57.52;99690.00;5073449;28;20102;-52
2022/02/23 02:23:15;;;;;;;31.85;10.05;;;;;;;10.59;57.38;99691.91;5055302;28;20119;-52
2022/02/23 02:25:42;;;;;;;29.83;8.98;;;;;;;10.71;57.27;99696.78;5038791;28;20021;-53
2022/02/23 02:28:07;;;;;;;27.63;9.15;;;;;;;10.74;57.04;99688.53;5073311;28;20023;-52
2022/02/23 02:30:33;;;;;;;25.85;10.18;;;;;;;10.67;57.40;99688.41;5073278;28;20028;-52
2022/02/23 02:32:59;;;;;;;22.80;8.50;;;;;;;10.75;57.39;99698.06;5073044;28;20040;-52
2022/02/23 02:35:24;;;;;;;25.20;9.63;;;;;;;10.80;57.33;99693.06;5073175;28;20019;-52
2022/02/23 02:37:50;;;;;;;25.60;9.85;;;;;;;10.93;56.84;99692.50;5054971;28;20031;-53
2022/02/23 02:40:16;;;;;;;23.67;8.15;;;;;;;10.97;56.71;99688.50;5073050;28;20021;-52
2022/02/23 02:42:42;;;;;;;26.92;9.88;;;;;;;10.89;57.38;99692.03;5054932;28;20055;-52
2022/02/23 02:45:08;;;;;;;30.10;9.88;;;;;;;10.91;57.45;99690.03;5072811;28;20029;-52
2022/02/23 02:47:34;;;;;;;23.48;7.05;;;;;;;11.08;57.44;99695.94;5054911;28;20115;-53
2022/02/23 02:49:59;;;;;;;27.45;9.77;;;;;;;11.21;57.27;99690.09;5054941;28;20462;-52
2022/02/23 02:52:25;;;;;;;21.23;7.90;;;;;;;11.36;56.96;99692.72;5054781;28;20024;-52
2022/02/23 02:54:51;;;;;;;27.00;9.85;;;;;;;11.40;56.50;99689.53;5054792;28;20028;-52
2022/02/23 02:57:16;;;;;;;25.80;10.20;;;;;;;11.44;56.60;99678.69;5072769;28;20031;-52
2022/02/23 02:59:42;;;;;;;27.05;10.30;;;;;;;11.41;56.96;99682.50;5072702;28;20079;-52
2022/02/23 03:02:08;;;;;;;27.77;9.60;;;;;;;11.31;57.13;99676.69;5072605;28;20577;-52
2022/02/23 03:04:34;;;;;;;31.77;10.80;;;;;;;11.31;56.65;99682.75;5072527;28;20017;-52
2022/02/23 03:06:59;;;;;;;29.27;10.20;;;;;;;11.22;56.94;99686.44;5072133;28;20048;-52
2022/02/23 03:09:25;;;;;;;28.13;9.95;;;;;;;11.23;57.01;99690.72;5072493;28;20444;-52
2022/02/23 03:11:51;;;;;;;35.50;11.20;;;;;;;11.25;57.20;99685.28;5072514;28;20082;-52
2022/02/23 03:14:16;;;;;;;25.27;10.85;;;;;;;11.37;56.96;99684.66;5072427;28;20031;-52
2022/02/23 03:16:42;;;;;;;29.70;9.88;;;;;;;11.43;56.98;99692.81;5072410;28;20588;-52
2022/02/23 03:19:08;;;;;;;25.88;9.88;;;;;;;11.52;56.95;99682.03;5072229;28;20078;-53
2022/02/23 03:21:33;;;;;;;25.85;10.00;;;;;;;11.60;56.66;99687.19;5054301;28;20078;-53
2022/02/23 03:24:00;;;;;;;17.33;7.32;;;;;;;11.85;56.20;99686.91;5054275;28;20021;-53
2022/02/23 03:26:25;;;;;;;19.17;7.05;;;;;;;11.88;56.18;99686.53;5054210;28;20032;-53
2022/02/23 03:28:51;;;;;;;23.60;7.60;;;;;;;11.99;56.02;99686.09;5072231;28;20013;-53
2022/02/23 03:31:17;;;;;;;23.35;6.78;;;;;;;12.14;55.68;99688.69;5053947;28;20072;-53
2022/02/23 03:33:43;;;;;;;21.00;8.13;;;;;;;12.26;55.84;99689.03;5071997;28;20103;-53
2022/02/23 03:36:13;;;;;;;18.40;6.45;;;;;;;12.38;55.62;99692.78;5072009;28;20028;-53
2022/02/23 03:38:41;;;;;;;26.77;7.40;;;;;;;12.56;55.25;99695.00;5054043;28;20028;-53
2022/02/23 03:41:07;;;;;;;19.88;6.05;;;;;;;12.60;54.64;99695.44;5072011;28;20042;-53
2022/02/23 03:43:33;;;;;;;20.92;5.85;;;;;;;12.55;55.14;99692.53;5053825;28;20025;-53
2022/02/23 03:45:58;;;;;;;24.77;6.82;;;;;;;12.33;54.71;99687.25;5071942;28;20027;-52
2022/02/23 03:48:24;;;;;;;19.38;6.32;;;;;;;12.16;55.76;99683.25;5071885;28;20102;-53
2022/02/23 03:50:50;;;;;;;20.40;5.60;;;;;;;12.31;55.99;99685.81;5053894;28;20027;-53
2022/02/23 03:53:16;;;;;;;22.33;6.55;;;;;;;12.55;55.52;99692.53;5053801;28;20028;-53
2022/02/23 03:55:42;;;;;;;25.92;6.90;;;;;;;12.65;55.45;99693.03;5071839;28;20142;-53
2022/02/23 03:58:09;;;;;;;21.10;6.22;;;;;;;12.60;55.20;99698.06;5071806;28;20028;-53
2022/02/23 04:00:35;;;;;;;18.23;6.47;;;;;;;12.70;55.42;99700.41;5071753;28;20051;-53
2022/02/23 04:03:00;;;;;;;18.48;5.90;;;;;;;12.88;55.30;99690.22;5053800;28;20032;-53
2022/02/23 04:05:26;;;;;;;18.65;6.85;;;;;;;13.03;54.34;99687.47;5071666;28;20020;-53
2022/02/23 04:07:52;;;;;;;22.38;8.50;;;;;;;12.97;53.90;99686.41;5053661;28;20123;-53
2022/02/23 04:10:19;;;;;;;21.55;8.98;;;;;;;12.68;54.43;99681.34;5053646;28;20044;-53
2022/02/23 04:12:47;;;;;;;16.38;5.95;;;;;;;12.45;54.47;99684.13;5071662;28;20024;-53
2022/02/23 04:15:16;;;;;;;21.05;6.70;;;;;;;12.21;54.82;99683.47;5071587;28;20062;-53
2022/02/23 04:17:42;;;;;;;20.77;7.93;;;;;;;11.97;55.77;99677.56;5054972;28;20037;-53
2022/02/23 04:20:09;;;;;;;19.38;5.93;;;;;;;11.79;56.47;99675.31;5057761;28;20083;-53
2022/02/23 04:22:35;;;;;;;23.77;6.18;;;;;;;11.82;56.83;99681.19;5057743;28;20558;-53
2022/02/23 04:25:01;;;;;;;19.95;5.53;;;;;;;11.84;57.32;99682.63;5057560;28;20024;-53
2022/02/23 04:27:27;;;;;;;22.02;5.10;;;;;;;11.97;57.32;99676.75;5057607;28;20051;-53
2022/02/23 04:29:52;;;;;;;20.77;5.72;;;;;;;12.10;57.18;99674.28;5075412;28;20031;-53
2022/02/23 04:32:18;;;;;;;17.58;5.35;;;;;;;12.28;56.77;99673.06;5075290;28;20037;-53
2022/02/23 04:34:44;;;;;;;32.00;6.90;;;;;;;12.49;56.62;99678.31;5057434;28;20028;-53
2022/02/23 04:37:09;;;;;;;21.98;6.00;;;;;;;12.56;56.51;99673.94;5057301;28;20021;-53
2022/02/23 04:39:35;;;;;;;16.85;5.15;;;;;;;12.67;56.30;99674.41;5075409;28;20077;-53
2022/02/23 04:42:01;;;;;;;24.65;5.95;;;;;;;12.71;56.26;99673.03;5075335;28;20493;-53
2022/02/23 04:44:27;;;;;;;19.60;6.07;;;;;;;12.70;55.80;99671.41;5057166;28;20021;-53
2022/02/23 04:46:54;;;;;;;17.90;5.88;;;;;;;12.61;56.05;99672.53;5075244;28;20119;-53
2022/02/23 04:49:20;;;;;;;19.95;5.68;;;;;;;12.38;56.48;99669.09;5057196;28;20048;-53
2022/02/23 04:51:46;;;;;;;19.75;5.65;;;;;;;12.14;56.92;99675.53;5075096;28;20082;-53
2022/02/23 04:54:11;;;;;;;15.45;5.53;;;;;;;12.15;57.52;99669.28;5057127;28;20462;-53
2022/02/23 04:56:38;;;;;;;20.50;6.35;;;;;;;12.24;57.46;99666.53;5057018;28;20023;-53
2022/02/23 04:59:05;;;;;;;22.67;5.63;;;;;;;12.29;57.64;99674.66;5074959;28;20028;-53
2022/02/23 05:01:30;;;;;;;19.48;5.80;;;;;;;12.46;57.25;99680.53;5074778;28;20027;-53
2022/02/23 05:03:56;;;;;;;20.33;5.90;;;;;;;12.67;57.54;99685.75;5074836;28;20028;-53
2022/02/23 05:06:22;;;;;;;16.52;5.60;;;;;;;12.87;56.92;99677.22;5056864;28;20485;-53
2022/02/23 05:08:47;;;;;;;17.05;5.35;;;;;;;12.91;56.48;99681.91;5074790;28;20119;-53
2022/02/23 05:11:13;;;;;;;15.15;4.07;;;;;;;12.86;56.37;99686.13;5074727;28;20401;-53
2022/02/23 05:13:39;;;;;;;20.40;5.28;;;;;;;12.70;56.23;99688.03;5074703;28;20027;-52
2022/02/23 05:16:05;;;;;;;16.75;5.53;;;;;;;12.67;56.71;99680.50;5074629;28;20478;-53
2022/02/23 05:18:31;;;;;;;24.10;5.85;;;;;;;12.69;57.14;99678.50;5074659;28;20028;-52
2022/02/23 05:20:59;;;;;;;26.55;6.10;;;;;;;12.80;56.76;99685.09;5074611;28;20020;-53
2022/02/23 05:23:26;;;;;;;19.13;4.82;;;;;;;12.82;56.43;99687.50;5074479;28;20028;-53
2022/02/23 05:25:52;;;;;;;23.55;5.90;;;;;;;12.67;56.78;99685.75;5074531;28;20087;-53
2022/02/23 05:28:18;;;;;;;20.17;5.45;;;;;;;12.48;57.32;99691.69;5056140;28;20128;-53
2022/02/23 05:30:45;;;;;;;16.90;4.65;;;;;;;12.67;57.69;99692.84;5074282;28;20016;-53
2022/02/23 05:33:11;;;;;;;12.77;4.68;;;;;;;12.98;56.81;99697.78;5074226;28;20060;-54
2022/02/23 05:35:37;;;;;;;21.13;5.07;;;;;;;13.13;56.59;99697.69;5056142;28;20513;-53
2022/02/23 05:38:03;;;;;;;16.40;4.97;;;;;;;13.21;56.02;99702.81;5074272;28;20028;-54
2022/02/23 05:40:29;;;;;;;19.48;5.32;;;;;;;13.30;56.33;99695.59;5074226;28;20402;-54
2022/02/23 05:42:54;;;;;;;17.60;5.88;;;;;;;13.50;55.47;99701.00;5074237;28;20446;-54
2022/02/23 05:45:22;;;;;;;22.20;6.00;;;;;;;13.35;55.75;99706.38;5074026;28;20074;-53
2022/02/23 05:47:47;;;;;;;16.25;4.88;;;;;;;13.56;55.92;99708.97;5056078;28;20016;-53
2022/02/23 05:50:13;;;;;;;22.25;5.68;;;;;;;13.72;55.24;99709.63;5074059;28;20024;-52
2022/02/23 05:52:39;;;;;;;14.70;5.03;;;;;;;13.82;55.17;99709.28;5074060;28;20100;-54
2022/02/23 05:55:05;;;;;;;17.48;5.20;;;;;;;13.85;54.86;99708.91;5055910;28;20028;-53
2022/02/23 05:57:32;;;;;;;19.42;5.72;;;;;;;13.68;54.54;99709.22;5073959;28;20021;-51
2022/02/23 05:59:58;;;;;;;26.73;5.72;;;;;;;13.49;55.42;99715.19;5073910;28;20482;-52
2022/02/23 06:02:23;;;;;;;33.08;5.85;;;;;;;13.48;56.05;99708.28;5055839;28;20039;-52
2022/02/23 06:04:49;;;;;;;30.20;7.22;;;;;;;13.51;55.62;99702.63;5073773;28;20412;-51
2022/02/23 06:07:15;;;;;;;25.80;6.60;;;;;;;13.34;56.27;99708.22;5073667;28;20042;-52
2022/02/23 06:09:40;;;;;;;27.63;5.57;;;;;;;13.33;56.69;99703.13;5073711;28;20020;-51
2022/02/23 06:12:07;;;;;;;25.77;6.28;;;;;;;13.37;56.65;99701.75;5073655;28;20493;-51
2022/02/23 06:14:32;;;;;;;18.70;5.32;;;;;;;13.34;56.37;99702.09;5055581;28;20517;-51
2022/02/23 06:16:58;;;;;;;18.67;5.75;;;;;;;13.34;56.65;99710.03;5055520;28;20031;-51
2022/02/23 06:19:24;;;;;;;20.00;6.25;;;;;;;13.34;56.48;99704.75;5055588;28;20186;-51
2022/02/23 06:21:50;;;;;;;17.83;5.78;;;;;;;13.25;56.94;99703.25;5073412;28;20066;-51
2022/02/23 06:24:16;;;;;;;18.10;4.93;;;;;;;13.23;56.90;99703.44;5073344;28;20481;-52
2022/02/23 06:26:42;;;;;;;18.58;5.72;;;;;;;13.20;57.16;99701.19;5073369;28;20557;-51
2022/02/23 06:29:08;;;;;;;15.98;5.63;;;;;;;13.25;57.20;99700.63;5073163;28;20028;-51
2022/02/23 06:31:33;;;;;;;21.33;5.35;;;;;;;13.20;56.56;99706.47;5072986;28;20048;-51
2022/02/23 06:33:59;;;;;;;21.05;5.30;;;;;;;12.85;57.47;99711.66;5073166;28;20036;-51
2022/02/23 06:36:25;;;;;;;18.83;4.65;;;;;;;12.66;57.88;99712.31;5073011;28;20025;-51
2022/02/23 06:38:51;;;;;;;18.85;4.90;;;;;;;12.49;58.39;99709.91;5073140;28;20016;-51
2022/02/23 06:41:22;;;;;;;15.55;4.00;;;;;;;12.59;59.16;99715.66;5072274;28;20098;-51
2022/02/23 06:43:49;;;;;;;20.58;4.80;;;;;;;12.74;58.41;99715.63;5072975;28;20025;-51
2022/02/23 06:46:16;;;;;;;21.30;5.22;;;;;;;12.71;58.92;99713.34;5072923;28;20039;-51
2022/02/23 06:48:41;;;;;;;21.98;4.15;;;;;;;13.03;58.86;99718.28;5072945;28;20118;-51
2022/02/23 06:51:08;;;;;;;16.83;4.47;;;;;;;13.41;58.29;99721.44;5072857;28;20129;-51
2022/02/23 06:53:35;;;;;;;18.23;4.93;;;;;;;13.75;56.99;99710.06;5072845;28;20016;-52
2022/02/23 06:56:01;;;;;;;20.67;4.72;;;;;;;13.92;56.64;99715.00;5054696;28;20405;-51
2022/02/23 06:58:28;;;;;;;19.45;4.57;;;;;;;14.08;56.13;99711.22;5055296;28;20024;-52
2022/02/23 07:00:54;;;;;;;21.63;4.93;;;;;;;14.26;55.75;99710.66;5072591;28;20103;-52
2022/02/23 07:03:20;;;;;;;15.82;4.30;;;;;;;14.38;55.28;99712.50;5054548;28;20103;-52
2022/02/23 07:05:46;;;;;;;19.88;4.22;;;;;;;14.61;55.02;99710.56;5072485;28;20457;-52
2022/02/23 07:08:12;;;;;;;18.58;5.05;;;;;;;15.05;53.95;99712.63;5054489;28;20078;-52
2022/02/23 07:10:38;;;;;;;19.83;5.13;;;;;;;15.46;52.95;99708.91;5072700;28;20049;-52
2022/02/23 07:13:06;;;;;;;22.45;4.75;;;;;;;15.75;52.26;99705.00;5072483;28;20099;-52
2022/02/23 07:15:34;;;;;;;19.17;4.45;;;;;;;16.15;51.34;99712.75;5054514;28;20047;-53
2022/02/23 07:18:00;;;;;;;20.00;4.80;;;;;;;16.00;51.10;99712.25;5072233;28;20027;-52
2022/02/23 07:20:26;;;;;;;19.10;4.05;;;;;;;15.60;51.59;99711.53;5054358;28;20025;-52
2022/02/23 07:22:52;;;;;;;17.90;4.82;;;;;;;14.92;52.91;99716.06;5054309;28;20108;-51
2022/02/23 07:25:19;;;;;;;19.27;4.50;;;;;;;14.55;53.60;99723.53;5072194;28;20029;-51
2022/02/23 07:27:45;;;;;;;18.15;4.57;;;;;;;14.41;54.30;99721.03;5072204;28;20051;-51
2022/02/23 07:30:14;;;;;;;16.52;5.25;;;;;;;14.29;54.66;99719.00;5054144;28;20106;-52
2022/02/23 07:32:40;;;;;;;23.92;5.22;;;;;;;14.03;54.52;99730.28;5053807;28;20048;-51
2022/02/23 07:35:10;;;;;;;25.52;4.35;;;;;;;13.60;55.91;99733.09;5072070;28;20013;-52
2022/02/23 07:37:38;;;;;;;20.20;3.78;;;;;;;13.65;56.57;99728.06;5072123;28;20032;-51
2022/02/23 07:40:10;;;;;;;15.07;4.47;;;;;;;13.84;56.08;99723.91;5071991;28;20017;-51
2022/02/23 07:42:35;;;;;;;24.77;5.15;;;;;;;14.07;55.99;99726.25;5054062;28;20020;-51
2022/02/23 07:45:02;;;;;;;20.75;4.45;;;;;;;14.20;55.29;99722.81;5071879;28;20382;-51
2022/02/23 07:47:28;;;;;;;19.88;5.07;;;;;;;14.05;55.76;99725.63;5053916;28;20029;-51
2022/02/23 07:49:53;;;;;;;18.90;4.50;;;;;;;14.34;55.66;99726.31;5071893;28;20024;-51
2022/02/23 07:52:20;;;;;;;17.13;4.50;;;;;;;14.58;54.87;99735.56;5071855;28;20422;-52
2022/02/23 07:54:46;;;;;;;20.13;5.45;;;;;;;14.82;54.67;99734.16;5053975;28;20432;-51
2022/02/23 07:57:12;;;;;;;25.23;5.05;;;;;;;15.11;53.86;99718.91;5071804;28;20024;-52
2022/02/23 07:59:39;;;;;;;17.45;4.63;;;;;;;15.30;53.27;99723.38;5071862;28;20091;-52
2022/02/23 08:02:05;;;;;;;22.80;4.38;;;;;;;15.43;52.84;99721.72;5071840;28;20017;-52
2022/02/23 08:04:33;;;;;;;24.95;5.18;;;;;;;15.40;52.65;99722.97;5071761;28;20486;-52
2022/02/23 08:06:58;;;;;;;17.25;4.35;;;;;;;15.38;52.72;99728.47;5071732;28;20119;-52
2022/02/23 08:09:25;;;;;;;27.52;6.00;;;;;;;15.41;52.49;99729.88;5071780;28;20517;-52
2022/02/23 08:11:51;;;;;;;24.13;4.57;;;;;;;15.17;52.81;99728.66;5071593;28;20428;-51
2022/02/23 08:14:17;;;;;;;21.55;4.45;;;;;;;14.91;53.25;99726.84;5037109;28;20024;-51
2022/02/23 08:19:37;;;;;;;17.98;4.80;;;;;;;15.18;53.30;99731.13;5056747;28;20487;-51
2022/02/23 08:22:08;;;;;;;23.17;5.20;;;;;;;15.10;53.33;99722.59;5071642;28;20425;-51
2022/02/23 08:24:37;;;;;;;25.05;5.07;;;;;;;14.96;53.33;99719.94;5071491;28;20473;-51
2022/02/23 08:27:05;;;;;;;18.05;5.65;;;;;;;14.79;53.52;99729.31;5071466;28;20035;-51
2022/02/23 08:29:31;;;;;;;16.80;5.28;;;;;;;14.55;54.45;99720.91;5053525;28;20021;-51
2022/02/23 08:31:57;;;;;;;22.40;5.20;;;;;;;14.37;54.81;99715.38;5053138;28;20049;-51
2022/02/23 08:34:24;;;;;;;19.85;5.47;;;;;;;14.15;55.83;99722.63;5053372;28;20383;-51
2022/02/23 08:36:50;;;;;;;17.73;5.03;;;;;;;14.38;55.48;99714.34;5071393;28;20025;-51
2022/02/23 08:39:16;;;;;;;22.95;4.80;;;;;;;14.59;54.99;99726.63;5053422;28;20016;-51
2022/02/23 08:41:45;;;;;;;35.00;6.07;;;;;;;14.56;55.27;99721.72;5071383;28;20035;-51
2022/02/23 08:44:12;;;;;;;27.17;5.68;;;;;;;14.75;55.03;99720.97;5071302;28;20051;-51
2022/02/23 08:46:41;;;;;;;17.20;3.90;;;;;;;15.15;54.23;99718.31;5053336;28;20048;-51
2022/02/23 08:49:07;;;;;;;24.30;5.82;;;;;;;15.24;53.88;99720.75;5071334;28;20017;-51
2022/02/23 08:51:35;;;;;;;24.63;4.88;;;;;;;15.49;53.79;99726.19;5071334;28;20077;-51
2022/02/23 08:54:00;;;;;;;18.80;5.68;;;;;;;15.66;53.08;99723.94;5071157;28;20025;-52
2022/02/23 08:56:26;;;;;;;19.45;4.45;;;;;;;15.84;52.73;99720.66;5071180;28;20074;-51
2022/02/23 08:58:52;;;;;;;34.30;9.35;;;;;;;16.07;52.23;99718.31;5071182;28;20075;-51
2022/02/23 09:01:18;;;;;;;22.20;4.75;;;;;;;16.41;51.43;99718.94;5053202;28;20078;-52
2022/02/23 09:03:44;;;;;;;38.25;8.43;;;;;;;16.69;50.92;99721.22;5072154;28;20023;-52
2022/02/23 09:06:10;;;;;;;26.33;10.68;;;;;;;16.77;50.15;99714.84;5074755;28;20024;-52
2022/02/23 09:08:36;;;;;;;11.52;4.82;;;;;;;16.73;50.17;99724.25;5056887;28;20024;-51
2022/02/23 09:11:02;;;;;;;23.00;5.70;;;;;;;16.55;50.26;99714.38;5074665;28;20158;-52
2022/02/23 09:13:27;;;;;;;31.13;5.07;;;;;;;16.47;50.51;99714.66;5074768;28;20512;-51
2022/02/23 09:15:53;;;;;;;20.15;4.57;;;;;;;16.46;50.97;99711.19;5074951;28;20111;-52
2022/02/23 09:18:19;;;;;;;24.33;5.65;;;;;;;16.60;50.53;99706.63;5074720;28;20021;-52
2022/02/23 09:20:45;;;;;;;20.83;5.88;;;;;;;16.73;49.59;99706.50;5074518;28;20040;-52
2022/02/23 09:23:11;;;;;;;16.23;4.82;;;;;;;16.66;49.89;99708.41;5074630;28;20029;-52
2022/02/23 09:25:36;;;;;;;22.00;4.55;;;;;;;16.59;49.77;99710.28;5074469;28;20371;-52
2022/02/23 09:28:02;;;;;;;16.88;5.35;;;;;;;16.55;49.93;99699.28;5074562;28;20036;-51
2022/02/23 09:30:28;;;;;;;20.42;5.25;;;;;;;16.71;49.49;99699.81;5056480;28;20029;-52
2022/02/23 09:32:54;;;;;;;21.67;4.82;;;;;;;16.71;49.46;99700.59;5056408;28;20459;-52
2022/02/23 09:35:21;;;;;;;19.63;4.05;;;;;;;16.78;49.54;99697.91;5056565;28;20516;-52
2022/02/23 09:37:48;;;;;;;23.10;3.97;;;;;;;17.09;49.27;99697.06;5074307;28;20519;-51
2022/02/23 09:40:16;;;;;;;17.33;3.78;;;;;;;17.64;47.76;99698.16;5074034;28;20021;-51
2022/02/23 09:42:43;;;;;;;16.52;3.92;;;;;;;18.08;46.53;99696.22;5074196;28;20436;-52
2022/02/23 09:45:10;;;;;;;20.50;3.75;;;;;;;18.45;45.92;99690.81;5073923;28;20021;-52
2022/02/23 09:47:36;;;;;;;14.80;4.15;;;;;;;18.66;45.24;99686.81;5056463;28;20035;-52
2022/02/23 09:50:08;;;;;;;18.00;4.57;;;;;;;18.75;44.69;99686.28;5073913;28;20028;-52
2022/02/23 09:52:34;;;;;;;13.65;4.07;;;;;;;19.03;44.62;99681.34;5074072;28;20202;-52
2022/02/23 09:55:02;;;;;;;18.80;3.97;;;;;;;19.21;44.29;99683.06;5074117;28;20541;-51
2022/02/23 09:57:28;;;;;;;20.10;4.35;;;;;;;19.45;43.46;99691.84;5073973;28;20031;-52
2022/02/23 09:59:55;;;;;;;19.00;4.30;;;;;;;19.66;43.23;99682.41;5073845;28;20028;-52
2022/02/23 10:02:22;;;;;;;24.20;5.30;;;;;;;19.64;43.04;99687.16;5073922;28;20016;-52
2022/02/23 10:04:50;;;;;;;17.33;5.10;;;;;;;20.15;41.92;99688.22;5073982;28;20035;-51
2022/02/23 10:07:26;;;;;;;16.55;3.83;;;;;;;20.36;41.43;99692.03;5073779;28;20070;-53
2022/02/23 10:09:54;;;;;;;12.18;4.22;;;;;;;20.17;41.71;99682.66;5073629;28;20040;-52
2022/02/23 10:12:26;;;;;;;20.27;4.35;;;;;;;19.85;41.71;99688.44;5073528;28;20017;-51
2022/02/23 10:15:07;;;;;;;14.23;4.25;;;;;;;19.74;41.98;99690.09;5055451;28;20082;-52
2022/02/23 10:17:46;;;;;;;18.17;5.00;;;;;;;19.43;42.46;99685.94;5073469;28;20111;-52
2022/02/23 10:20:38;;;;;;;13.07;3.92;;;;;;;18.83;43.40;99693.09;5073486;28;20032;-51
2022/02/23 10:23:28;;;;;;;16.10;4.22;;;;;;;18.33;44.65;99696.91;5073523;28;20442;-52
2022/02/23 10:26:00;;;;;;;19.40;3.45;;;;;;;18.32;44.88;99697.94;5073338;28;20028;-51
2022/02/23 10:28:32;;;;;;;13.80;3.60;;;;;;;18.27;44.79;99699.66;5073310;28;20032;-52
2022/02/23 10:31:00;;;;;;;18.67;3.70;;;;;;;18.36;45.09;99698.31;5055237;28;20032;-50
2022/02/23 10:33:34;;;;;;;15.73;4.53;;;;;;;18.32;44.72;99705.91;5073221;28;20040;-52
2022/02/23 10:36:25;;;;;;;32.58;6.35;;;;;;;18.23;44.86;99695.81;5073191;28;20024;-52
2022/02/23 10:39:01;;;;;;;18.10;4.60;;;;;;;18.49;44.69;99702.59;5069135;28;20064;-51
2022/02/23 10:41:32;;;;;;;17.38;3.70;;;;;;;18.61;44.43;99700.78;5073340;28;20398;-52
2022/02/23 10:43:59;;;;;;;14.23;4.32;;;;;;;18.63;44.03;99706.69;5055086;28;20485;-51
2022/02/23 10:46:25;;;;;;;15.38;3.83;;;;;;;18.38;44.14;99706.06;5073014;28;20490;-52
2022/02/23 10:48:59;;;;;;;15.85;3.17;;;;;;;18.12;44.77;99700.88;5054925;28;20082;-52
2022/02/23 10:51:32;;;;;;;11.63;2.80;;;;;;;18.05;44.59;99702.81;5073140;28;20029;-52
2022/02/23 10:54:04;;;;;;;12.45;2.67;;;;;;;17.99;44.71;99690.44;5055294;28;20397;-52
2022/02/23 10:56:33;;;;;;;11.40;3.58;;;;;;;19.08;43.50;99681.47;5073003;28;20032;-52
2022/02/23 10:59:17;;;;;;;11.52;3.20;;;;;;;19.85;41.94;99672.44;5072783;28;20085;-53
2022/02/23 11:01:48;;;;;;;13.52;3.58;;;;;;;20.75;40.75;99674.34;5072702;28;20067;-52
2022/02/23 11:04:15;;;;;;;9.70;2.88;;;;;;;21.49;39.10;99677.78;5072500;28;20381;-51
2022/02/23 11:06:42;;;;;;;12.60;3.20;;;;;;;21.17;38.97;99678.44;5072475;28;20024;-52
2022/02/23 11:09:09;;;;;;;11.98;3.42;;;;;;;20.57;39.78;99681.75;5072837;28;20024;-52
2022/02/23 11:11:35;;;;;;;13.77;3.33;;;;;;;20.61;39.43;99678.38;5072303;28;20452;-52
2022/02/23 11:14:06;;;;;;;12.75;4.13;;;;;;;21.45;38.74;99669.50;5072392;28;20032;-52
2022/02/23 11:16:31;;;;;;;8.10;2.25;;;;;;;22.99;35.29;99670.19;5072457;28;20033;-50
2022/02/23 11:18:59;;;;;;;6.60;2.67;;;;;;;24.30;32.24;99664.84;5072441;28;20038;-50
2022/02/23 11:21:32;;;;;;;9.52;2.40;;;;;;;25.37;31.40;99655.09;5072291;28;20050;-50
2022/02/23 11:24:00;;;;;;;10.40;3.30;;;;;;;25.94;30.12;99645.72;5072122;28;20024;-50
2022/02/23 11:26:30;;;;;;;13.85;3.00;;;;;;;26.46;28.78;99646.97;5071950;28;20028;-50